Time;durP1;ratioP1;P1;durP2;ratioP2;P2;SDS_P1;SDS_P2;PMS_P1;PMS_P2;Temp;Humidity;BMP_temperature;BMP_pressure;BME280_temperature;BME280_humidity;BME280_pressure;Samples;Min_cycle;Max_cycle;Signal;HPM_P1;HPM_P2
2023/01/02 00:01:45;;;;;;;7.53;5.80;;;15.60;1.00;;;;;;5048194;28;20438;-58
2023/01/02 00:04:10;;;;;;;8.27;6.60;;;15.60;1.00;;;;;;5048353;28;20242;-57
2023/01/02 00:06:38;;;;;;;7.97;6.30;;;15.60;1.00;;;;;;5047308;28;20458;-57
2023/01/02 00:09:05;;;;;;;8.33;6.03;;;15.60;1.00;;;;;;5048103;28;20592;-58
2023/01/02 00:11:32;;;;;;;6.97;5.97;;;15.50;1.00;;;;;;5047241;28;21108;-57
2023/01/02 00:13:57;;;;;;;10.33;6.40;;;15.50;1.00;;;;;;5048265;28;20466;-58
2023/01/02 00:16:23;;;;;;;8.30;5.70;;;15.60;1.00;;;;;;5048048;28;21039;-58
2023/01/02 00:18:49;;;;;;;11.50;6.40;;;15.60;1.00;;;;;;5047957;28;20189;-57
2023/01/02 00:21:16;;;;;;;7.90;5.73;;;15.60;1.00;;;;;;5047115;28;20185;-57
2023/01/02 00:23:41;;;;;;;12.17;6.87;;;15.60;1.00;;;;;;5047326;28;20453;-58
2023/01/02 00:26:07;;;;;;;7.70;6.17;;;15.50;1.00;;;;;;5045464;28;20447;-58
2023/01/02 00:28:34;;;;;;;9.87;5.80;;;15.50;1.00;;;;;;5047408;28;20196;-58
2023/01/02 00:31:10;;;;;;;7.70;5.90;;;15.60;1.00;;;;;;5048421;28;20470;-57
2023/01/02 00:33:36;;;;;;;7.80;6.67;;;15.60;1.00;;;;;;5045789;28;20979;-57
2023/01/02 00:36:06;;;;;;;10.03;6.40;;;15.60;1.00;;;;;;5046689;28;20447;-57
2023/01/02 00:38:32;;;;;;;8.00;6.23;;;15.50;1.00;;;;;;5047452;28;20447;-57
2023/01/02 00:40:59;;;;;;;9.50;6.20;;;15.60;1.00;;;;;;5048408;28;20477;-57
2023/01/02 00:43:25;;;;;;;8.90;5.47;;;15.70;1.00;;;;;;5046061;28;20454;-57
2023/01/02 00:45:51;;;;;;;11.13;7.20;;;15.60;1.00;;;;;;5046651;28;20443;-56
2023/01/02 00:48:16;;;;;;;9.27;6.17;;;15.60;1.00;;;;;;5046143;28;21048;-57
2023/01/02 00:50:43;;;;;;;8.30;5.63;;;15.70;1.00;;;;;;5050370;28;20208;-57
2023/01/02 00:53:08;;;;;;;8.50;6.00;;;15.80;1.00;;;;;;5051658;28;20299;-57
2023/01/02 00:55:34;;;;;;;9.10;6.53;;;15.70;1.00;;;;;;5049764;28;20537;-57
2023/01/02 00:57:59;;;;;;;9.43;5.90;;;15.80;1.00;;;;;;5047439;28;20180;-58
2023/01/02 01:00:25;;;;;;;11.07;5.83;;;15.80;1.00;;;;;;5051942;28;20211;-59
2023/01/02 01:02:55;;;;;;;11.80;6.00;;;15.80;1.00;;;;;;5046980;28;20196;-57
2023/01/02 01:05:21;;;;;;;8.83;5.90;;;15.80;1.00;;;;;;5047957;28;20192;-58
2023/01/02 01:07:47;;;;;;;7.60;5.83;;;15.80;1.00;;;;;;5048932;28;21029;-57
2023/01/02 01:10:12;;;;;;;8.93;6.07;;;15.80;1.00;;;;;;5050323;28;20244;-58
2023/01/02 01:12:38;;;;;;;7.53;5.27;;;15.90;1.00;;;;;;5051641;28;20201;-57
2023/01/02 01:15:05;;;;;;;8.10;5.37;;;15.90;1.00;;;;;;5049423;28;20184;-58
2023/01/02 01:17:31;;;;;;;7.83;5.20;;;15.90;1.00;;;;;;5049456;28;20185;-57
2023/01/02 01:19:57;;;;;;;7.63;6.10;;;16.00;1.00;;;;;;5049472;28;20455;-57
2023/01/02 01:22:22;;;;;;;10.93;6.33;;;15.90;1.00;;;;;;5051177;28;20797;-57
2023/01/02 01:24:48;;;;;;;8.47;5.57;;;16.00;1.00;;;;;;5051067;28;20216;-57
2023/01/02 01:27:14;;;;;;;9.87;5.77;;;16.00;1.00;;;;;;5051593;28;20899;-58
2023/01/02 01:29:39;;;;;;;9.57;6.20;;;16.00;1.00;;;;;;5050115;28;20611;-56
2023/01/02 01:32:05;;;;;;;6.63;4.60;;;16.00;1.00;;;;;;5049553;28;20200;-57
2023/01/02 01:34:30;;;;;;;8.20;5.80;;;16.00;1.00;;;;;;5051305;28;20307;-58
2023/01/02 01:36:56;;;;;;;8.30;5.63;;;16.10;1.00;;;;;;5050310;28;20254;-57
2023/01/02 01:39:21;;;;;;;8.20;5.40;;;16.00;1.00;;;;;;5047812;28;20791;-56
2023/01/02 01:41:47;;;;;;;6.90;5.20;;;16.00;1.00;;;;;;5053312;28;20184;-57
2023/01/02 01:44:47;;;;;;;6.17;5.10;;;16.10;1.00;;;;;;5049612;28;20188;-57
2023/01/02 01:47:24;;;;;;;10.83;6.17;;;16.00;1.00;;;;;;5049120;28;20696;-57
2023/01/02 01:50:18;;;;;;;8.87;5.03;;;16.10;1.00;;;;;;5053693;28;20466;-57
2023/01/02 01:52:50;;;;;;;7.97;5.27;;;16.00;1.00;;;;;;5049649;28;20561;-58
2023/01/02 01:55:22;;;;;;;7.53;6.40;;;15.90;1.00;;;;;;5048901;28;20835;-58
2023/01/02 01:57:56;;;;;;;8.67;6.20;;;15.90;1.00;;;;;;5049887;28;20447;-56
2023/01/02 02:00:21;;;;;;;8.67;6.10;;;15.90;1.00;;;;;;5050841;28;20483;-57
2023/01/02 02:02:50;;;;;;;8.60;5.10;;;16.00;1.00;;;;;;5049267;28;20421;-57
2023/01/02 02:05:20;;;;;;;8.73;5.20;;;16.00;1.00;;;;;;5049965;28;20235;-57
2023/01/02 02:08:24;;;;;;;8.50;5.40;;;15.90;1.00;;;;;;5047760;28;20458;-57
2023/01/02 02:10:50;;;;;;;5.90;5.30;;;15.90;1.00;;;;;;5047604;28;20496;-57
2023/01/02 02:13:17;;;;;;;6.10;4.63;;;15.90;1.00;;;;;;5046747;28;20463;-57
2023/01/02 02:16:16;;;;;;;6.83;5.80;;;15.90;1.00;;;;;;5048842;28;20504;-58
2023/01/02 02:18:54;;;;;;;6.77;5.17;;;15.90;1.00;;;;;;5048810;28;20435;-58
2023/01/02 02:21:23;;;;;;;7.60;5.47;;;15.90;1.00;;;;;;5048225;28;20458;-57
2023/01/02 02:24:29;;;;;;;8.77;6.20;;;15.90;1.00;;;;;;5048957;28;20439;-56
2023/01/02 02:27:16;;;;;;;8.17;5.67;;;15.90;1.00;;;;;;5048622;28;20451;-58
2023/01/02 02:30:03;;;;;;;8.93;6.33;;;15.90;1.00;;;;;;5048112;28;20474;-57
2023/01/02 02:32:38;;;;;;;10.30;6.10;;;15.80;1.00;;;;;;5048774;28;20437;-57
2023/01/02 02:35:22;;;;;;;8.93;6.20;;;15.80;1.00;;;;;;5049125;28;20470;-58
2023/01/02 02:38:06;;;;;;;9.60;6.57;;;15.80;1.00;;;;;;5050013;28;20461;-57
2023/01/02 02:41:09;;;;;;;8.40;5.97;;;15.80;1.00;;;;;;5049021;28;20439;-57
2023/01/02 02:43:49;;;;;;;10.17;6.20;;;15.90;1.00;;;;;;5047142;28;20492;-58
2023/01/02 02:46:45;;;;;;;8.13;5.80;;;15.80;1.00;;;;;;5047220;28;20446;-57
2023/01/02 02:49:29;;;;;;;8.93;5.10;;;15.80;1.00;;;;;;5047143;28;20498;-57
2023/01/02 02:52:01;;;;;;;9.20;5.83;;;15.80;1.00;;;;;;5047568;28;20529;-57
2023/01/02 02:54:35;;;;;;;7.63;5.60;;;15.90;1.00;;;;;;5048730;28;20471;-57
2023/01/02 02:57:02;;;;;;;6.97;6.20;;;15.90;1.00;;;;;;5048283;28;20458;-57
2023/01/02 02:59:29;;;;;;;8.23;6.03;;;15.90;1.00;;;;;;5049272;28;20467;-56
2023/01/02 03:01:54;;;;;;;8.70;6.20;;;15.90;1.00;;;;;;5047114;28;20497;-58
2023/01/02 03:04:21;;;;;;;7.33;5.47;;;15.90;1.00;;;;;;5048809;28;20752;-58
2023/01/02 03:07:28;;;;;;;7.10;5.80;;;15.90;1.00;;;;;;5048632;28;20807;-57
2023/01/02 03:10:04;;;;;;;6.77;5.40;;;15.90;1.00;;;;;;5043795;28;20445;-57
2023/01/02 03:12:41;;;;;;;8.00;5.87;;;15.80;1.00;;;;;;5053858;28;20465;-56
2023/01/02 03:15:24;;;;;;;6.73;5.33;;;15.90;1.00;;;;;;5045090;28;20441;-57
2023/01/02 03:18:07;;;;;;;6.43;5.43;;;15.80;1.00;;;;;;5046328;28;20435;-58
2023/01/02 03:20:40;;;;;;;8.40;5.17;;;15.90;1.00;;;;;;5049135;28;21016;-57
2023/01/02 03:23:11;;;;;;;6.50;5.30;;;15.80;1.00;;;;;;5048494;28;20443;-57
2023/01/02 03:25:37;;;;;;;7.33;5.30;;;15.80;1.00;;;;;;5045061;28;20446;-56
2023/01/02 03:28:06;;;;;;;8.20;4.93;;;15.70;1.00;;;;;;5048472;28;20817;-57
2023/01/02 03:30:35;;;;;;;9.17;5.87;;;15.80;1.00;;;;;;5047913;28;20478;-57
2023/01/02 03:33:17;;;;;;;9.90;6.10;;;15.80;1.00;;;;;;5049212;28;20473;-57
2023/01/02 03:35:51;;;;;;;8.43;5.67;;;15.70;1.00;;;;;;5047796;28;20491;-56
2023/01/02 03:38:26;;;;;;;8.73;6.13;;;15.70;1.00;;;;;;5049295;28;21005;-56
2023/01/02 03:41:05;;;;;;;10.50;6.80;;;15.70;1.00;;;;;;5047671;28;20476;-56
2023/01/02 03:43:33;;;;;;;8.77;6.00;;;15.70;1.00;;;;;;5046857;28;20450;-57
2023/01/02 03:46:12;;;;;;;11.50;7.23;;;15.60;1.00;;;;;;5046478;28;20474;-57
2023/01/02 03:48:51;;;;;;;9.07;6.57;;;15.70;1.00;;;;;;5045140;28;20778;-57
2023/01/02 03:51:16;;;;;;;10.57;6.67;;;15.60;1.00;;;;;;5049272;28;20439;-57
2023/01/02 03:53:43;;;;;;;10.13;6.90;;;15.60;1.00;;;;;;5047434;28;20523;-57
2023/01/02 03:56:42;;;;;;;8.20;5.73;;;15.60;1.00;;;;;;5047842;28;20442;-57
2023/01/02 03:59:40;;;;;;;8.30;6.33;;;15.70;1.00;;;;;;5046400;28;20439;-57
2023/01/02 04:02:17;;;;;;;9.13;5.80;;;15.60;1.00;;;;;;5046419;28;20860;-57
2023/01/02 04:04:57;;;;;;;8.70;5.63;;;15.50;1.00;;;;;;5048910;28;20446;-57
2023/01/02 04:07:42;;;;;;;6.60;5.80;;;15.70;1.00;;;;;;5049078;28;20511;-57
2023/01/02 04:10:11;;;;;;;9.67;6.13;;;15.60;1.00;;;;;;5046937;28;20879;-57
2023/01/02 04:12:40;;;;;;;7.13;5.57;;;15.50;1.00;;;;;;5048074;28;20440;-57
2023/01/02 04:15:12;;;;;;;7.33;6.07;;;15.50;1.00;;;;;;5044533;28;20446;-58
2023/01/02 04:17:54;;;;;;;9.17;5.87;;;15.60;1.00;;;;;;5046414;28;20455;-58
2023/01/02 04:20:25;;;;;;;7.57;5.93;;;15.60;1.00;;;;;;5045503;28;20435;-57
2023/01/02 04:22:56;;;;;;;8.80;6.20;;;15.60;1.00;;;;;;5047528;28;20508;-58
2023/01/02 04:25:27;;;;;;;9.43;5.93;;;15.60;1.00;;;;;;5048734;28;20648;-57
2023/01/02 04:27:57;;;;;;;7.00;5.90;;;15.60;1.00;;;;;;5052090;28;20979;-57
2023/01/02 04:30:24;;;;;;;6.60;5.47;;;15.50;1.00;;;;;;5051577;28;20517;-57
2023/01/02 04:32:51;;;;;;;8.43;5.97;;;15.50;1.00;;;;;;5046740;28;20850;-57
2023/01/02 04:35:22;;;;;;;7.43;5.17;;;15.60;1.00;;;;;;5052182;28;20497;-58
2023/01/02 04:37:48;;;;;;;7.63;5.83;;;15.50;1.00;;;;;;5050755;28;20490;-57
2023/01/02 04:40:13;;;;;;;9.63;5.87;;;15.50;1.00;;;;;;5051677;28;20485;-57
2023/01/02 04:42:39;;;;;;;7.57;6.00;;;15.50;1.00;;;;;;5052137;28;20192;-57
2023/01/02 04:45:05;;;;;;;10.90;6.43;;;15.50;1.00;;;;;;5049412;28;20192;-57
2023/01/02 04:47:30;;;;;;;7.30;5.20;;;15.50;1.00;;;;;;5051201;28;20531;-57
2023/01/02 04:49:56;;;;;;;7.87;5.77;;;15.50;1.00;;;;;;5056596;28;20461;-58
2023/01/02 04:52:22;;;;;;;7.60;5.90;;;15.50;1.00;;;;;;5072241;28;20188;-57
2023/01/02 04:54:47;;;;;;;8.97;6.33;;;15.60;1.00;;;;;;5058510;28;20761;-57
2023/01/02 04:57:13;;;;;;;7.90;5.93;;;15.60;1.00;;;;;;5054334;28;20234;-58
2023/01/02 04:59:38;;;;;;;11.97;6.67;;;15.50;1.00;;;;;;5049367;28;20180;-56
2023/01/02 05:02:04;;;;;;;7.30;5.60;;;15.50;1.00;;;;;;5049676;28;20189;-57
2023/01/02 05:04:29;;;;;;;10.43;6.80;;;15.40;1.00;;;;;;5049124;28;20193;-56
2023/01/02 05:06:55;;;;;;;9.17;6.90;;;15.40;1.00;;;;;;5051403;28;20715;-57
2023/01/02 05:09:21;;;;;;;9.10;6.27;;;15.40;1.00;;;;;;5063152;28;20267;-57
2023/01/02 05:11:46;;;;;;;9.10;6.57;;;15.30;1.00;;;;;;5051619;28;20638;-56
2023/01/02 05:14:12;;;;;;;7.77;6.80;;;15.40;1.00;;;;;;5064924;28;20243;-56
2023/01/02 05:16:37;;;;;;;9.53;5.70;;;15.40;1.00;;;;;;5049723;28;20194;-56
2023/01/02 05:19:03;;;;;;;11.10;6.30;;;15.30;1.00;;;;;;5049681;28;20746;-56
2023/01/02 05:24:12;;;;;;;9.70;6.33;;;15.10;1.00;;;;;;5051394;28;20219;-56
2023/01/02 05:26:38;;;;;;;9.13;6.47;;;15.00;1.00;;;;;;5051406;28;20435;-58
2023/01/02 05:29:04;;;;;;;10.57;6.00;;;15.10;1.00;;;;;;5050719;28;20224;-58
2023/01/02 05:31:29;;;;;;;7.63;6.27;;;15.00;1.00;;;;;;5049721;28;20188;-58
2023/01/02 05:33:57;;;;;;;13.53;7.10;;;15.10;1.00;;;;;;5049395;28;20730;-58
2023/01/02 05:36:24;;;;;;;12.03;7.40;;;15.10;1.00;;;;;;5050854;28;20320;-57
2023/01/02 05:38:51;;;;;;;11.67;7.27;;;15.00;1.00;;;;;;5049565;28;20418;-58
2023/01/02 05:41:17;;;;;;;8.40;6.93;;;15.00;1.00;;;;;;5051249;28;20447;-57
2023/01/02 05:43:43;;;;;;;9.83;6.80;;;15.00;1.00;;;;;;5051190;28;20441;-58
2023/01/02 05:46:18;;;;;;;9.33;7.47;;;15.00;1.00;;;;;;5047599;28;21007;-56
2023/01/02 05:48:45;;;;;;;10.77;7.70;;;15.00;1.00;;;;;;5049984;28;20231;-57
2023/01/02 05:51:13;;;;;;;8.60;6.90;;;15.10;1.00;;;;;;5049366;28;20808;-57
2023/01/02 05:53:39;;;;;;;11.37;7.20;;;15.00;1.00;;;;;;5050954;28;20823;-57
2023/01/02 05:56:07;;;;;;;11.27;7.83;;;15.00;1.00;;;;;;5049463;28;20451;-57
2023/01/02 05:58:35;;;;;;;8.90;7.80;;;15.00;1.00;;;;;;5049763;28;20542;-58
2023/01/02 06:01:20;;;;;;;12.93;7.00;;;14.90;1.00;;;;;;5049438;28;20466;-57
2023/01/02 06:03:51;;;;;;;7.60;6.33;;;15.10;1.00;;;;;;5047028;28;20447;-57
2023/01/02 06:06:18;;;;;;;8.63;6.90;;;14.90;1.00;;;;;;5049791;28;20852;-57
2023/01/02 06:08:44;;;;;;;12.70;8.57;;;14.90;1.00;;;;;;5061843;28;20503;-57
2023/01/02 06:11:10;;;;;;;7.97;6.60;;;14.90;1.00;;;;;;5061518;28;20442;-57
2023/01/02 06:13:37;;;;;;;9.13;6.40;;;14.90;1.00;;;;;;5048350;28;20208;-57
2023/01/02 06:16:04;;;;;;;10.27;7.50;;;14.80;1.00;;;;;;5047877;28;20189;-57
2023/01/02 06:18:31;;;;;;;6.80;6.10;;;14.90;1.00;;;;;;5050010;28;20593;-58
2023/01/02 06:21:11;;;;;;;9.70;7.27;;;14.90;1.00;;;;;;5047538;28;20616;-57
2023/01/02 06:23:38;;;;;;;8.57;6.53;;;15.00;1.00;;;;;;5048302;28;20926;-56
2023/01/02 06:26:12;;;;;;;10.00;6.73;;;15.80;1.00;;;;;;5050064;28;20446;-57
2023/01/02 06:28:39;;;;;;;11.50;7.90;;;14.90;1.00;;;;;;5048024;28;20804;-57
2023/01/02 06:31:07;;;;;;;9.73;7.30;;;14.80;1.00;;;;;;5048316;28;20451;-57
2023/01/02 06:33:33;;;;;;;9.03;8.13;;;14.80;1.00;;;;;;5049976;28;20470;-57
2023/01/02 06:36:03;;;;;;;11.00;7.63;;;14.90;1.00;;;;;;5047876;28;20955;-58
2023/01/02 06:38:29;;;;;;;11.70;8.57;;;14.80;1.00;;;;;;5049786;28;20439;-58
2023/01/02 06:40:57;;;;;;;11.20;7.93;;;14.70;1.00;;;;;;5049113;28;20443;-57
2023/01/02 06:43:24;;;;;;;10.33;8.50;;;14.70;1.00;;;;;;5049399;28;20475;-57
2023/01/02 06:45:50;;;;;;;10.77;8.80;;;14.60;1.00;;;;;;5047486;28;20534;-57
2023/01/02 06:48:16;;;;;;;11.23;8.47;;;14.50;1.00;;;;;;5055449;28;20916;-58
2023/01/02 06:50:42;;;;;;;10.90;8.00;;;14.40;1.00;;;;;;5051018;28;20275;-57
2023/01/02 06:53:08;;;;;;;11.17;8.50;;;14.40;1.00;;;;;;5052856;28;20474;-58
2023/01/02 06:55:34;;;;;;;12.10;8.90;;;14.40;1.00;;;;;;5050497;28;20911;-58
2023/01/02 06:58:00;;;;;;;11.83;7.90;;;14.30;1.00;;;;;;5048956;28;20179;-57
2023/01/02 07:00:25;;;;;;;10.60;9.03;;;14.30;1.00;;;;;;5047752;28;20350;-58
2023/01/02 07:02:51;;;;;;;11.60;8.50;;;14.20;1.00;;;;;;5048864;28;20499;-57
2023/01/02 07:05:17;;;;;;;12.03;9.17;;;14.20;1.00;;;;;;5048859;28;20282;-57
2023/01/02 07:07:42;;;;;;;12.23;9.50;;;14.10;1.00;;;;;;5048743;28;20247;-57
2023/01/02 07:10:08;;;;;;;13.80;10.03;;;14.10;1.00;;;;;;5048111;28;20188;-57
2023/01/02 07:12:37;;;;;;;12.93;10.00;;;14.00;1.00;;;;;;5047255;28;20193;-57
2023/01/02 07:15:04;;;;;;;12.70;10.23;;;13.90;1.00;;;;;;5048980;28;20465;-58
2023/01/02 07:17:31;;;;;;;12.77;9.60;;;13.90;1.00;;;;;;5047996;28;20546;-57
2023/01/02 07:19:57;;;;;;;12.83;9.40;;;13.80;1.00;;;;;;5046794;28;20439;-58
2023/01/02 07:22:22;;;;;;;10.77;9.47;;;13.80;1.00;;;;;;5048159;28;20441;-57
2023/01/02 07:24:48;;;;;;;13.67;10.30;;;13.80;1.00;;;;;;5048332;28;20250;-57
2023/01/02 07:27:13;;;;;;;14.70;9.60;;;13.80;1.00;;;;;;5048309;28;20196;-57
2023/01/02 07:29:39;;;;;;;14.33;10.40;;;13.80;1.00;;;;;;5046484;28;20204;-57
2023/01/02 07:32:05;;;;;;;15.83;10.57;;;13.90;1.00;;;;;;5053455;28;20574;-57
2023/01/02 07:34:30;;;;;;;13.50;9.97;;;13.90;1.00;;;;;;5046498;28;20212;-57
2023/01/02 07:36:56;;;;;;;13.73;10.53;;;13.70;1.00;;;;;;5047490;28;21637;-58
2023/01/02 07:39:22;;;;;;;12.60;10.90;;;13.80;1.00;;;;;;5046815;28;20192;-57
2023/01/02 07:41:48;;;;;;;10.67;9.57;;;13.70;1.00;;;;;;5048698;28;20206;-57
2023/01/02 07:44:14;;;;;;;12.57;9.77;;;13.70;1.00;;;;;;5049047;28;20758;-57
2023/01/02 07:46:39;;;;;;;15.60;10.60;;;13.70;1.00;;;;;;5047602;28;20199;-57
2023/01/02 07:49:05;;;;;;;15.53;10.50;;;13.60;1.00;;;;;;5048697;28;20493;-57
2023/01/02 07:51:31;;;;;;;14.63;9.43;;;13.70;1.00;;;;;;5049038;28;20504;-57
2023/01/02 07:53:57;;;;;;;13.97;9.50;;;13.60;1.00;;;;;;5047581;28;20208;-57
2023/01/02 07:56:24;;;;;;;12.70;9.70;;;13.60;1.00;;;;;;5048052;28;20429;-57
2023/01/02 07:58:50;;;;;;;10.87;9.50;;;13.60;1.00;;;;;;5048595;28;20654;-57
2023/01/02 08:01:15;;;;;;;11.53;9.30;;;13.70;1.00;;;;;;5051121;28;20449;-56
2023/01/02 08:03:41;;;;;;;13.97;10.60;;;13.60;1.00;;;;;;5053556;28;20447;-57
2023/01/02 08:06:09;;;;;;;14.30;10.10;;;13.60;1.00;;;;;;5051737;28;20313;-57
2023/01/02 08:08:36;;;;;;;12.53;8.77;;;13.60;1.00;;;;;;5051834;28;20192;-57
2023/01/02 08:11:06;;;;;;;12.70;9.40;;;13.60;1.00;;;;;;5051567;28;20485;-57
2023/01/02 08:13:33;;;;;;;10.77;8.17;;;13.50;1.00;;;;;;5056492;28;20875;-57
2023/01/02 08:16:03;;;;;;;11.93;9.13;;;13.60;1.00;;;;;;5061259;28;20442;-56
2023/01/02 08:18:29;;;;;;;12.90;9.60;;;13.60;1.00;;;;;;5061116;28;20457;-57
2023/01/02 08:20:55;;;;;;;12.33;9.20;;;13.60;1.00;;;;;;5052384;28;20443;-58
2023/01/02 08:23:20;;;;;;;12.17;8.73;;;13.50;1.00;;;;;;5049231;28;20192;-57
2023/01/02 08:25:46;;;;;;;11.40;9.13;;;13.60;1.00;;;;;;5050922;28;20224;-57
2023/01/02 08:28:11;;;;;;;12.90;9.43;;;13.70;1.00;;;;;;5055485;28;20197;-58
2023/01/02 08:30:39;;;;;;;12.37;9.33;;;13.70;1.00;;;;;;5051119;28;20200;-58
2023/01/02 08:33:05;;;;;;;11.80;8.93;;;13.70;1.00;;;;;;5051334;28;20235;-58
2023/01/02 08:35:30;;;;;;;13.07;8.97;;;13.60;1.00;;;;;;5051996;28;20451;-57
2023/01/02 08:37:56;;;;;;;12.13;8.50;;;13.60;1.00;;;;;;5050575;28;20192;-59
2023/01/02 08:40:22;;;;;;;10.30;9.10;;;13.70;1.00;;;;;;5050805;28;20184;-56
2023/01/02 08:42:47;;;;;;;9.93;8.93;;;13.80;1.00;;;;;;5052248;28;20188;-57
2023/01/02 08:45:13;;;;;;;11.73;9.13;;;13.70;1.00;;;;;;5051545;28;20215;-57
2023/01/02 08:47:38;;;;;;;13.60;9.60;;;13.70;1.00;;;;;;5051988;28;20191;-58
2023/01/02 08:50:04;;;;;;;12.83;8.70;;;13.70;1.00;;;;;;5052638;28;20262;-58
2023/01/02 08:52:30;;;;;;;12.40;9.57;;;13.80;1.00;;;;;;5051721;28;20200;-57
2023/01/02 08:54:56;;;;;;;12.93;9.33;;;13.90;1.00;;;;;;5052071;28;20185;-58
2023/01/02 08:57:21;;;;;;;12.50;9.50;;;13.90;1.00;;;;;;5051964;28;20633;-57
2023/01/02 08:59:47;;;;;;;12.57;9.70;;;13.90;1.00;;;;;;5051152;28;20200;-56
2023/01/02 09:02:14;;;;;;;14.30;9.20;;;13.90;1.00;;;;;;5053162;28;21228;-57
2023/01/02 09:04:40;;;;;;;12.77;9.23;;;13.80;1.00;;;;;;5051911;28;20192;-57
2023/01/02 09:07:06;;;;;;;11.57;8.93;;;13.80;1.00;;;;;;5051234;28;20446;-57
2023/01/02 09:09:31;;;;;;;13.20;9.20;;;13.70;1.00;;;;;;5051622;28;20504;-57
2023/01/02 09:11:58;;;;;;;11.13;8.40;;;13.70;1.00;;;;;;5051075;28;20181;-57
2023/01/02 09:14:23;;;;;;;15.90;9.20;;;13.70;1.00;;;;;;5063097;28;20253;-57
2023/01/02 09:16:50;;;;;;;11.70;7.43;;;13.80;1.00;;;;;;5071690;28;20488;-57
2023/01/02 09:19:16;;;;;;;12.63;8.50;;;13.80;1.00;;;;;;5064663;28;20188;-57
2023/01/02 09:21:42;;;;;;;10.13;7.90;;;13.80;1.00;;;;;;5050570;28;20431;-57
2023/01/02 09:24:08;;;;;;;9.60;8.50;;;13.70;1.00;;;;;;5049632;28;21011;-58
2023/01/02 09:26:34;;;;;;;10.00;9.00;;;13.70;1.00;;;;;;5049445;28;20200;-58
2023/01/02 09:28:59;;;;;;;11.37;8.70;;;13.80;1.00;;;;;;5050183;28;20181;-57
2023/01/02 09:31:25;;;;;;;9.80;7.97;;;13.90;1.00;;;;;;5048596;28;20492;-56
2023/01/02 09:33:52;;;;;;;11.70;7.67;;;13.80;1.00;;;;;;5049660;28;20204;-58
2023/01/02 09:36:19;;;;;;;9.90;8.10;;;13.90;1.00;;;;;;5051013;28;20202;-58
2023/01/02 09:38:56;;;;;;;12.30;8.00;;;13.90;1.00;;;;;;5051565;28;20443;-57
2023/01/02 09:41:38;;;;;;;13.90;7.90;;;14.00;1.00;;;;;;5049865;28;20538;-57
2023/01/02 09:44:06;;;;;;;11.90;8.27;;;14.10;1.00;;;;;;5050851;28;20445;-57
2023/01/02 09:46:53;;;;;;;13.00;8.13;;;14.10;1.00;;;;;;5049119;28;20459;-56
2023/01/02 09:49:21;;;;;;;14.27;8.13;;;14.10;1.00;;;;;;5050348;28;20481;-58
2023/01/02 09:51:47;;;;;;;11.57;8.10;;;14.20;1.00;;;;;;5050413;28;20455;-58
2023/01/02 09:54:20;;;;;;;10.30;8.50;;;14.10;1.00;;;;;;5050586;28;20481;-57
2023/01/02 09:56:50;;;;;;;9.93;7.40;;;14.10;1.00;;;;;;5049301;28;20773;-58
2023/01/02 10:00:10;;;;;;;11.87;8.90;;;14.10;1.00;;;;;;5058478;28;20544;-57
2023/01/02 10:03:05;;;;;;;10.73;8.23;;;14.20;1.00;;;;;;4987876;28;20441;-59
2023/01/02 10:05:40;;;;;;;9.47;8.30;;;14.10;1.00;;;;;;5050032;28;20482;-57
2023/01/02 10:08:20;;;;;;;12.13;7.60;;;14.10;1.00;;;;;;5049460;28;20710;-59
2023/01/02 10:10:53;;;;;;;12.27;7.70;;;14.10;1.00;;;;;;5047700;28;20462;-57
2023/01/02 10:13:24;;;;;;;11.27;7.70;;;14.20;1.00;;;;;;5050289;28;20464;-59
2023/01/02 10:15:52;;;;;;;11.57;7.80;;;14.30;1.00;;;;;;5048568;28;20469;-58
2023/01/02 10:18:30;;;;;;;11.20;8.00;;;14.30;1.00;;;;;;5048423;28;20455;-57
2023/01/02 10:21:02;;;;;;;11.33;8.60;;;14.30;1.00;;;;;;5049285;28;20446;-57
2023/01/02 10:23:35;;;;;;;9.87;8.40;;;14.30;1.00;;;;;;5049034;28;20512;-59
2023/01/02 10:26:13;;;;;;;11.60;7.27;;;14.30;1.00;;;;;;5050212;28;20454;-58
2023/01/02 10:28:44;;;;;;;8.87;7.97;;;14.30;1.00;;;;;;5049456;28;20513;-59
2023/01/02 10:31:33;;;;;;;10.43;7.37;;;14.50;1.00;;;;;;5049253;28;20451;-57
2023/01/02 10:34:01;;;;;;;10.40;7.33;;;14.60;1.00;;;;;;5048903;28;20524;-58
2023/01/02 10:36:38;;;;;;;9.27;7.83;;;14.70;1.00;;;;;;5049980;28;20824;-57
2023/01/02 10:39:12;;;;;;;10.60;7.70;;;14.60;1.00;;;;;;5050039;28;20437;-58
2023/01/02 10:41:39;;;;;;;9.33;7.23;;;14.70;1.00;;;;;;5049708;28;20442;-58
2023/01/02 10:44:19;;;;;;;10.70;8.23;;;14.60;1.00;;;;;;5050239;28;20446;-58
2023/01/02 10:46:44;;;;;;;9.60;7.80;;;14.50;1.00;;;;;;5049178;28;20454;-57
2023/01/02 10:49:11;;;;;;;11.97;8.20;;;14.50;1.00;;;;;;5049788;28;21084;-57
2023/01/02 10:51:49;;;;;;;10.97;8.83;;;14.50;1.00;;;;;;5049757;28;20612;-58
2023/01/02 10:54:15;;;;;;;9.80;8.17;;;14.60;1.00;;;;;;5048625;28;20473;-58
2023/01/02 10:56:47;;;;;;;10.93;8.17;;;14.50;1.00;;;;;;5049025;28;20466;-58
2023/01/02 10:59:24;;;;;;;12.23;7.60;;;14.50;1.00;;;;;;5048657;28;20266;-58
2023/01/02 11:01:58;;;;;;;10.00;8.60;;;14.50;1.00;;;;;;5049395;28;20474;-57
2023/01/02 11:04:27;;;;;;;9.37;7.87;;;14.60;1.00;;;;;;5047717;28;20539;-58
2023/01/02 11:07:01;;;;;;;15.63;8.10;;;14.50;1.00;;;;;;5049568;28;20473;-57
2023/01/02 11:09:30;;;;;;;9.90;7.90;;;14.60;1.00;;;;;;5047569;28;20453;-59
2023/01/02 11:11:59;;;;;;;11.13;8.10;;;14.60;1.00;;;;;;5047890;28;20454;-57
2023/01/02 11:14:31;;;;;;;8.70;7.80;;;14.80;1.00;;;;;;5046790;28;20474;-58
2023/01/02 11:17:11;;;;;;;12.10;7.57;;;14.80;1.00;;;;;;5044739;28;20447;-58
2023/01/02 11:19:45;;;;;;;11.87;7.40;;;14.90;1.00;;;;;;5051121;28;20452;-57
2023/01/02 11:22:13;;;;;;;8.80;7.90;;;14.70;1.00;;;;;;5048740;28;20470;-58
2023/01/02 11:24:56;;;;;;;9.30;7.20;;;14.60;1.00;;;;;;5047831;28;20424;-57
2023/01/02 11:27:27;;;;;;;9.07;7.40;;;14.50;1.00;;;;;;5048919;28;20454;-58
2023/01/02 11:29:52;;;;;;;9.13;7.93;;;14.60;1.00;;;;;;5047025;28;20576;-57
2023/01/02 11:32:37;;;;;;;17.43;8.43;;;14.70;1.00;;;;;;5048439;28;20589;-58
2023/01/02 11:35:03;;;;;;;11.37;7.67;;;14.70;1.00;;;;;;5047080;28;20492;-59
2023/01/02 11:37:29;;;;;;;9.37;7.20;;;14.60;1.00;;;;;;5047968;28;20553;-57
2023/01/02 11:40:04;;;;;;;8.87;7.00;;;14.60;1.00;;;;;;5046516;28;20458;-57
2023/01/02 11:45:28;;;;;;;7.97;7.17;;;14.40;1.00;;;;;;5068514;28;20881;-58
2023/01/02 11:48:01;;;;;;;11.30;8.07;;;14.20;1.00;;;;;;5049055;28;20477;-57
2023/01/02 11:50:29;;;;;;;8.93;8.03;;;14.20;1.00;;;;;;5047737;28;20470;-57
2023/01/02 11:53:00;;;;;;;10.93;7.73;;;14.30;1.00;;;;;;5049013;28;20508;-57
2023/01/02 11:55:57;;;;;;;11.03;8.70;;;14.40;1.00;;;;;;5048419;28;21004;-58
2023/01/02 11:58:52;;;;;;;11.20;7.83;;;14.40;1.00;;;;;;5040867;28;20443;-58
2023/01/02 12:01:31;;;;;;;8.83;6.17;;;14.60;1.00;;;;;;5039619;28;21046;-57
2023/01/02 12:03:57;;;;;;;11.43;6.67;;;14.60;1.00;;;;;;5049030;28;20459;-58
2023/01/02 12:06:33;;;;;;;9.33;6.93;;;14.60;1.00;;;;;;5048970;28;20439;-57
2023/01/02 12:09:01;;;;;;;11.43;7.73;;;14.80;1.00;;;;;;5047184;28;20482;-58
2023/01/02 12:12:04;;;;;;;11.00;7.37;;;14.90;1.00;;;;;;5048775;28;20474;-57
2023/01/02 12:14:49;;;;;;;11.50;7.10;;;14.90;1.00;;;;;;5049029;28;20462;-59
2023/01/02 12:17:28;;;;;;;8.10;7.30;;;15.10;1.00;;;;;;5048883;28;20453;-57
2023/01/02 12:20:15;;;;;;;8.97;7.43;;;15.10;1.00;;;;;;5049138;28;20431;-58
2023/01/02 12:22:55;;;;;;;9.33;7.13;;;14.90;1.00;;;;;;5048864;28;20427;-57
2023/01/02 12:25:33;;;;;;;11.20;7.90;;;14.80;1.00;;;;;;5052514;28;20443;-58
2023/01/02 12:28:14;;;;;;;10.27;7.67;;;14.80;1.00;;;;;;5047276;28;20438;-58
2023/01/02 12:30:49;;;;;;;7.10;6.40;;;14.80;1.00;;;;;;5048681;28;20443;-57
2023/01/02 12:33:38;;;;;;;8.10;6.50;;;14.80;1.00;;;;;;5048862;28;20554;-57
2023/01/02 12:36:32;;;;;;;8.17;7.10;;;14.90;1.00;;;;;;5046321;28;20404;-58
2023/01/02 12:39:22;;;;;;;10.00;7.73;;;15.00;1.00;;;;;;5048682;28;20438;-58
2023/01/02 12:42:08;;;;;;;8.53;6.70;;;15.10;1.00;;;;;;5047965;28;21055;-58
2023/01/02 12:44:57;;;;;;;10.83;7.67;;;15.10;1.00;;;;;;5048995;28;20508;-57
2023/01/02 12:47:32;;;;;;;10.17;7.20;;;14.90;1.00;;;;;;5043707;28;20443;-58
2023/01/02 12:50:22;;;;;;;6.87;6.17;;;14.80;1.00;;;;;;5052094;28;21005;-58
2023/01/02 12:53:15;;;;;;;10.17;7.20;;;14.80;1.00;;;;;;5052258;28;20506;-58
2023/01/02 12:55:59;;;;;;;11.33;7.27;;;14.80;1.00;;;;;;5051924;28;20430;-57
2023/01/02 12:58:43;;;;;;;10.80;8.33;;;14.70;1.00;;;;;;5052342;28;20450;-57
2023/01/02 13:01:40;;;;;;;7.73;6.57;;;14.70;1.00;;;;;;5052337;28;20519;-58
2023/01/02 13:04:38;;;;;;;10.97;7.73;;;14.80;1.00;;;;;;5037319;28;20464;-57
2023/01/02 13:07:28;;;;;;;11.50;7.43;;;14.80;1.00;;;;;;5050969;28;20416;-58
2023/01/02 13:09:56;;;;;;;10.07;7.17;;;14.70;1.00;;;;;;5031621;28;20937;-57
2023/01/02 13:12:25;;;;;;;9.30;7.00;;;14.70;1.00;;;;;;5051244;28;20496;-58
2023/01/02 13:15:23;;;;;;;8.67;6.73;;;14.60;1.00;;;;;;5054748;28;20480;-57
2023/01/02 13:17:48;;;;;;;11.03;6.57;;;14.60;1.00;;;;;;5071731;28;20803;-59
2023/01/02 13:20:33;;;;;;;8.63;6.30;;;14.60;1.00;;;;;;5071842;28;20434;-58
2023/01/02 13:23:17;;;;;;;9.47;6.60;;;14.70;1.00;;;;;;5059951;28;20231;-57